sensor_id;sensor_type;location;lat;lon;timestamp;P1;durP1;ratioP1;P2;durP2;ratioP2
23179;SDS011;11758;45.756;11.432;2022-09-24T00:01:37;6.18;;;5.40;;
23179;SDS011;11758;45.756;11.432;2022-09-24T00:04:05;6.75;;;5.75;;
23179;SDS011;11758;45.756;11.432;2022-09-24T00:06:35;6.63;;;5.10;;
23179;SDS011;11758;45.756;11.432;2022-09-24T00:09:02;7.05;;;6.03;;
23179;SDS011;11758;45.756;11.432;2022-09-24T00:11:28;6.78;;;5.32;;
23179;SDS011;11758;45.756;11.432;2022-09-24T00:13:55;7.07;;;5.43;;
23179;SDS011;11758;45.756;11.432;2022-09-24T00:16:22;7.10;;;5.78;;
23179;SDS011;11758;45.756;11.432;2022-09-24T00:18:49;7.88;;;5.65;;
23179;SDS011;11758;45.756;11.432;2022-09-24T00:21:22;6.70;;;5.47;;
23179;SDS011;11758;45.756;11.432;2022-09-24T00:23:52;13.93;;;5.70;;
23179;SDS011;11758;45.756;11.432;2022-09-24T00:26:18;7.45;;;5.30;;
23179;SDS011;11758;45.756;11.432;2022-09-24T00:29:03;6.75;;;6.03;;
23179;SDS011;11758;45.756;11.432;2022-09-24T00:31:30;8.80;;;6.22;;
23179;SDS011;11758;45.756;11.432;2022-09-24T00:33:56;8.38;;;5.47;;
23179;SDS011;11758;45.756;11.432;2022-09-24T00:36:24;7.03;;;5.55;;
23179;SDS011;11758;45.756;11.432;2022-09-24T00:38:50;8.43;;;5.47;;
23179;SDS011;11758;45.756;11.432;2022-09-24T00:41:20;5.32;;;4.82;;
23179;SDS011;11758;45.756;11.432;2022-09-24T00:43:47;11.27;;;5.38;;
23179;SDS011;11758;45.756;11.432;2022-09-24T00:48:57;7.05;;;5.35;;
23179;SDS011;11758;45.756;11.432;2022-09-24T00:51:24;8.52;;;5.38;;
23179;SDS011;11758;45.756;11.432;2022-09-24T00:53:53;7.45;;;5.70;;
23179;SDS011;11758;45.756;11.432;2022-09-24T00:56:19;6.57;;;5.60;;
23179;SDS011;11758;45.756;11.432;2022-09-24T00:58:50;8.73;;;5.55;;
23179;SDS011;11758;45.756;11.432;2022-09-24T01:01:18;7.18;;;6.20;;
23179;SDS011;11758;45.756;11.432;2022-09-24T01:03:45;7.82;;;4.65;;
23179;SDS011;11758;45.756;11.432;2022-09-24T01:06:12;7.82;;;4.38;;
23179;SDS011;11758;45.756;11.432;2022-09-24T01:08:38;7.75;;;4.57;;
23179;SDS011;11758;45.756;11.432;2022-09-24T01:13:36;5.00;;;4.00;;
23179;SDS011;11758;45.756;11.432;2022-09-24T01:16:11;9.40;;;4.40;;
23179;SDS011;11758;45.756;11.432;2022-09-24T01:18:43;4.03;;;3.70;;
23179;SDS011;11758;45.756;11.432;2022-09-24T01:21:26;4.25;;;3.88;;
23179;SDS011;11758;45.756;11.432;2022-09-24T01:31:46;5.72;;;3.80;;
23179;SDS011;11758;45.756;11.432;2022-09-24T01:34:14;3.90;;;3.60;;
23179;SDS011;11758;45.756;11.432;2022-09-24T01:36:43;8.65;;;4.45;;
23179;SDS011;11758;45.756;11.432;2022-09-24T01:39:10;4.20;;;3.90;;
23179;SDS011;11758;45.756;11.432;2022-09-24T01:41:38;5.30;;;3.92;;
23179;SDS011;11758;45.756;11.432;2022-09-24T01:44:07;4.82;;;3.95;;
23179;SDS011;11758;45.756;11.432;2022-09-24T01:46:38;4.63;;;3.50;;
23179;SDS011;11758;45.756;11.432;2022-09-24T01:49:05;4.15;;;3.80;;
23179;SDS011;11758;45.756;11.432;2022-09-24T01:51:40;4.40;;;4.00;;
23179;SDS011;11758;45.756;11.432;2022-09-24T01:56:37;4.55;;;3.67;;
23179;SDS011;11758;45.756;11.432;2022-09-24T01:59:09;5.38;;;3.58;;
23179;SDS011;11758;45.756;11.432;2022-09-24T02:01:39;3.60;;;3.35;;
23179;SDS011;11758;45.756;11.432;2022-09-24T02:04:09;3.80;;;3.28;;
23179;SDS011;11758;45.756;11.432;2022-09-24T02:06:37;3.53;;;3.22;;
23179;SDS011;11758;45.756;11.432;2022-09-24T02:09:05;6.55;;;3.80;;
23179;SDS011;11758;45.756;11.432;2022-09-24T02:11:32;3.83;;;3.50;;
23179;SDS011;11758;45.756;11.432;2022-09-24T02:14:05;4.22;;;3.55;;
23179;SDS011;11758;45.756;11.432;2022-09-24T02:16:43;6.10;;;3.35;;
23179;SDS011;11758;45.756;11.432;2022-09-24T02:19:10;4.82;;;2.67;;
23179;SDS011;11758;45.756;11.432;2022-09-24T02:21:38;3.58;;;3.25;;
23179;SDS011;11758;45.756;11.432;2022-09-24T02:24:06;7.10;;;3.75;;
23179;SDS011;11758;45.756;11.432;2022-09-24T02:26:33;5.43;;;3.80;;
23179;SDS011;11758;45.756;11.432;2022-09-24T02:28:59;4.53;;;3.88;;
23179;SDS011;11758;45.756;11.432;2022-09-24T02:31:36;5.43;;;3.60;;
23179;SDS011;11758;45.756;11.432;2022-09-24T02:34:04;8.05;;;3.50;;
23179;SDS011;11758;45.756;11.432;2022-09-24T02:36:51;4.10;;;3.80;;
23179;SDS011;11758;45.756;11.432;2022-09-24T02:39:18;3.50;;;3.20;;
23179;SDS011;11758;45.756;11.432;2022-09-24T02:41:44;4.63;;;3.20;;
23179;SDS011;11758;45.756;11.432;2022-09-24T02:44:12;4.78;;;3.00;;
23179;SDS011;11758;45.756;11.432;2022-09-24T02:46:38;4.10;;;3.40;;
23179;SDS011;11758;45.756;11.432;2022-09-24T02:49:05;4.68;;;3.53;;
23179;SDS011;11758;45.756;11.432;2022-09-24T02:51:31;4.32;;;3.00;;
23179;SDS011;11758;45.756;11.432;2022-09-24T02:53:58;3.75;;;3.35;;
23179;SDS011;11758;45.756;11.432;2022-09-24T02:56:26;4.60;;;3.42;;
23179;SDS011;11758;45.756;11.432;2022-09-24T02:58:52;4.55;;;4.05;;
23179;SDS011;11758;45.756;11.432;2022-09-24T03:01:18;5.25;;;3.40;;
23179;SDS011;11758;45.756;11.432;2022-09-24T03:03:44;4.13;;;3.72;;
23179;SDS011;11758;45.756;11.432;2022-09-24T03:06:11;4.25;;;3.20;;
23179;SDS011;11758;45.756;11.432;2022-09-24T03:08:37;5.72;;;3.33;;
23179;SDS011;11758;45.756;11.432;2022-09-24T03:11:04;8.85;;;3.47;;
23179;SDS011;11758;45.756;11.432;2022-09-24T03:13:30;3.88;;;3.58;;
23179;SDS011;11758;45.756;11.432;2022-09-24T03:15:56;4.47;;;3.42;;
23179;SDS011;11758;45.756;11.432;2022-09-24T03:18:22;3.60;;;3.30;;
23179;SDS011;11758;45.756;11.432;2022-09-24T03:20:59;6.63;;;3.38;;
23179;SDS011;11758;45.756;11.432;2022-09-24T03:23:25;6.78;;;3.40;;
23179;SDS011;11758;45.756;11.432;2022-09-24T03:25:52;4.50;;;3.38;;
23179;SDS011;11758;45.756;11.432;2022-09-24T03:28:18;3.88;;;3.53;;
23179;SDS011;11758;45.756;11.432;2022-09-24T03:30:44;5.35;;;3.88;;
23179;SDS011;11758;45.756;11.432;2022-09-24T03:33:30;5.15;;;4.53;;
23179;SDS011;11758;45.756;11.432;2022-09-24T03:35:57;10.02;;;4.70;;
23179;SDS011;11758;45.756;11.432;2022-09-24T03:38:23;5.75;;;4.70;;
23179;SDS011;11758;45.756;11.432;2022-09-24T03:40:50;4.53;;;4.10;;
23179;SDS011;11758;45.756;11.432;2022-09-24T03:43:16;5.75;;;3.60;;
23179;SDS011;11758;45.756;11.432;2022-09-24T03:45:42;4.28;;;3.90;;
23179;SDS011;11758;45.756;11.432;2022-09-24T03:48:08;8.75;;;5.47;;
23179;SDS011;11758;45.756;11.432;2022-09-24T03:50:35;12.13;;;3.53;;
23179;SDS011;11758;45.756;11.432;2022-09-24T03:53:01;6.25;;;3.67;;
23179;SDS011;11758;45.756;11.432;2022-09-24T03:55:27;5.15;;;3.10;;
23179;SDS011;11758;45.756;11.432;2022-09-24T03:57:53;3.53;;;2.90;;
23179;SDS011;11758;45.756;11.432;2022-09-24T04:00:19;3.40;;;3.10;;
23179;SDS011;11758;45.756;11.432;2022-09-24T04:02:47;3.90;;;3.30;;
23179;SDS011;11758;45.756;11.432;2022-09-24T04:05:14;4.57;;;3.30;;
23179;SDS011;11758;45.756;11.432;2022-09-24T04:07:41;3.83;;;3.22;;
23179;SDS011;11758;45.756;11.432;2022-09-24T04:10:07;3.58;;;3.28;;
23179;SDS011;11758;45.756;11.432;2022-09-24T04:12:34;3.70;;;3.40;;
23179;SDS011;11758;45.756;11.432;2022-09-24T04:15:00;3.67;;;3.05;;
23179;SDS011;11758;45.756;11.432;2022-09-24T04:17:27;4.47;;;3.22;;
23179;SDS011;11758;45.756;11.432;2022-09-24T04:19:57;3.35;;;3.08;;
23179;SDS011;11758;45.756;11.432;2022-09-24T04:22:23;3.38;;;3.17;;
23179;SDS011;11758;45.756;11.432;2022-09-24T04:24:53;4.20;;;3.60;;
23179;SDS011;11758;45.756;11.432;2022-09-24T04:27:19;3.75;;;3.42;;
23179;SDS011;11758;45.756;11.432;2022-09-24T04:29:46;6.35;;;3.17;;
23179;SDS011;11758;45.756;11.432;2022-09-24T04:32:12;3.75;;;3.50;;
23179;SDS011;11758;45.756;11.432;2022-09-24T04:34:38;5.32;;;3.40;;
23179;SDS011;11758;45.756;11.432;2022-09-24T04:37:04;4.93;;;3.65;;
23179;SDS011;11758;45.756;11.432;2022-09-24T04:39:30;3.95;;;3.28;;
23179;SDS011;11758;45.756;11.432;2022-09-24T04:41:56;3.60;;;3.33;;
23179;SDS011;11758;45.756;11.432;2022-09-24T04:44:22;3.50;;;3.20;;
23179;SDS011;11758;45.756;11.432;2022-09-24T04:46:48;3.63;;;2.88;;
23179;SDS011;11758;45.756;11.432;2022-09-24T04:49:14;6.93;;;3.05;;
23179;SDS011;11758;45.756;11.432;2022-09-24T04:51:41;3.10;;;2.90;;
23179;SDS011;11758;45.756;11.432;2022-09-24T04:54:07;3.50;;;3.30;;
23179;SDS011;11758;45.756;11.432;2022-09-24T04:56:34;3.95;;;3.03;;
23179;SDS011;11758;45.756;11.432;2022-09-24T04:59:00;2.95;;;2.70;;
23179;SDS011;11758;45.756;11.432;2022-09-24T05:01:26;4.57;;;3.00;;
23179;SDS011;11758;45.756;11.432;2022-09-24T05:03:53;3.08;;;2.88;;
23179;SDS011;11758;45.756;11.432;2022-09-24T05:06:19;2.72;;;2.60;;
23179;SDS011;11758;45.756;11.432;2022-09-24T05:08:45;2.90;;;2.70;;
23179;SDS011;11758;45.756;11.432;2022-09-24T05:11:11;4.28;;;3.15;;
23179;SDS011;11758;45.756;11.432;2022-09-24T05:13:37;4.45;;;3.10;;
23179;SDS011;11758;45.756;11.432;2022-09-24T05:16:03;3.50;;;3.10;;
23179;SDS011;11758;45.756;11.432;2022-09-24T05:18:29;3.58;;;3.35;;
23179;SDS011;11758;45.756;11.432;2022-09-24T05:20:55;2.85;;;2.72;;
23179;SDS011;11758;45.756;11.432;2022-09-24T05:23:21;2.83;;;2.72;;
23179;SDS011;11758;45.756;11.432;2022-09-24T05:25:48;3.08;;;2.50;;
23179;SDS011;11758;45.756;11.432;2022-09-24T05:28:33;2.97;;;2.75;;
23179;SDS011;11758;45.756;11.432;2022-09-24T05:30:59;3.60;;;2.70;;
23179;SDS011;11758;45.756;11.432;2022-09-24T05:33:26;3.20;;;2.90;;
23179;SDS011;11758;45.756;11.432;2022-09-24T05:35:53;3.28;;;2.22;;
23179;SDS011;11758;45.756;11.432;2022-09-24T05:38:19;5.53;;;2.83;;
23179;SDS011;11758;45.756;11.432;2022-09-24T05:40:45;3.13;;;2.83;;
23179;SDS011;11758;45.756;11.432;2022-09-24T05:43:12;2.20;;;2.10;;
23179;SDS011;11758;45.756;11.432;2022-09-24T05:45:38;4.63;;;2.45;;
23179;SDS011;11758;45.756;11.432;2022-09-24T05:48:05;3.10;;;2.70;;
23179;SDS011;11758;45.756;11.432;2022-09-24T05:50:32;2.13;;;2.00;;
23179;SDS011;11758;45.756;11.432;2022-09-24T05:52:59;1.70;;;1.70;;
23179;SDS011;11758;45.756;11.432;2022-09-24T05:55:25;2.53;;;1.95;;
23179;SDS011;11758;45.756;11.432;2022-09-24T05:57:52;4.57;;;2.70;;
23179;SDS011;11758;45.756;11.432;2022-09-24T06:00:18;2.90;;;2.70;;
23179;SDS011;11758;45.756;11.432;2022-09-24T06:02:45;2.75;;;2.65;;
23179;SDS011;11758;45.756;11.432;2022-09-24T06:05:16;6.20;;;3.20;;
23179;SDS011;11758;45.756;11.432;2022-09-24T06:07:45;4.50;;;2.47;;
23179;SDS011;11758;45.756;11.432;2022-09-24T06:10:18;2.60;;;2.50;;
23179;SDS011;11758;45.756;11.432;2022-09-24T06:12:51;2.20;;;2.13;;
23179;SDS011;11758;45.756;11.432;2022-09-24T06:15:19;2.10;;;2.00;;
23179;SDS011;11758;45.756;11.432;2022-09-24T06:17:47;2.08;;;2.00;;
23179;SDS011;11758;45.756;11.432;2022-09-24T06:20:14;2.55;;;2.05;;
23179;SDS011;11758;45.756;11.432;2022-09-24T06:22:40;1.90;;;1.90;;
23179;SDS011;11758;45.756;11.432;2022-09-24T06:25:09;2.13;;;2.00;;
23179;SDS011;11758;45.756;11.432;2022-09-24T06:27:36;1.88;;;1.77;;
23179;SDS011;11758;45.756;11.432;2022-09-24T06:30:07;1.55;;;1.55;;
23179;SDS011;11758;45.756;11.432;2022-09-24T06:32:36;1.70;;;1.60;;
23179;SDS011;11758;45.756;11.432;2022-09-24T06:35:03;3.03;;;1.92;;
23179;SDS011;11758;45.756;11.432;2022-09-24T06:37:30;1.65;;;1.55;;
23179;SDS011;11758;45.756;11.432;2022-09-24T06:40:03;1.58;;;1.48;;
23179;SDS011;11758;45.756;11.432;2022-09-24T06:42:49;1.38;;;1.30;;
23179;SDS011;11758;45.756;11.432;2022-09-24T06:45:16;1.45;;;1.40;;
23179;SDS011;11758;45.756;11.432;2022-09-24T06:48:01;1.65;;;1.55;;
23179;SDS011;11758;45.756;11.432;2022-09-24T06:50:33;1.70;;;1.60;;
23179;SDS011;11758;45.756;11.432;2022-09-24T06:53:03;1.52;;;1.50;;
23179;SDS011;11758;45.756;11.432;2022-09-24T06:55:32;1.55;;;1.50;;
23179;SDS011;11758;45.756;11.432;2022-09-24T07:00:34;2.10;;;2.00;;
23179;SDS011;11758;45.756;11.432;2022-09-24T07:03:01;4.72;;;1.92;;
23179;SDS011;11758;45.756;11.432;2022-09-24T07:05:27;1.30;;;1.30;;
23179;SDS011;11758;45.756;11.432;2022-09-24T07:07:53;3.38;;;1.77;;
23179;SDS011;11758;45.756;11.432;2022-09-24T07:10:19;1.48;;;1.48;;
23179;SDS011;11758;45.756;11.432;2022-09-24T07:12:45;2.40;;;2.05;;
23179;SDS011;11758;45.756;11.432;2022-09-24T07:15:11;4.30;;;3.15;;
23179;SDS011;11758;45.756;11.432;2022-09-24T07:17:37;8.55;;;3.65;;
23179;SDS011;11758;45.756;11.432;2022-09-24T07:20:03;9.32;;;4.65;;
23179;SDS011;11758;45.756;11.432;2022-09-24T07:22:29;10.57;;;5.43;;
23179;SDS011;11758;45.756;11.432;2022-09-24T07:24:55;10.50;;;5.32;;
23179;SDS011;11758;45.756;11.432;2022-09-24T07:27:22;20.17;;;5.53;;
23179;SDS011;11758;45.756;11.432;2022-09-24T07:29:48;13.73;;;5.47;;
23179;SDS011;11758;45.756;11.432;2022-09-24T07:32:15;8.18;;;5.40;;
23179;SDS011;11758;45.756;11.432;2022-09-24T07:34:41;15.07;;;5.90;;
23179;SDS011;11758;45.756;11.432;2022-09-24T07:37:07;9.00;;;5.13;;
23179;SDS011;11758;45.756;11.432;2022-09-24T07:39:34;9.05;;;5.40;;
23179;SDS011;11758;45.756;11.432;2022-09-24T07:42:00;8.20;;;4.68;;
23179;SDS011;11758;45.756;11.432;2022-09-24T07:44:26;10.80;;;5.05;;
23179;SDS011;11758;45.756;11.432;2022-09-24T07:46:53;6.80;;;5.40;;
23179;SDS011;11758;45.756;11.432;2022-09-24T07:49:25;9.02;;;5.45;;
23179;SDS011;11758;45.756;11.432;2022-09-24T07:51:53;5.78;;;4.45;;
23179;SDS011;11758;45.756;11.432;2022-09-24T07:54:19;6.28;;;5.00;;
23179;SDS011;11758;45.756;11.432;2022-09-24T07:56:45;5.47;;;4.78;;
23179;SDS011;11758;45.756;11.432;2022-09-24T07:59:11;5.25;;;4.43;;
23179;SDS011;11758;45.756;11.432;2022-09-24T08:01:41;11.38;;;4.95;;
23179;SDS011;11758;45.756;11.432;2022-09-24T08:04:07;12.43;;;4.60;;
23179;SDS011;11758;45.756;11.432;2022-09-24T08:06:36;5.57;;;4.85;;
23179;SDS011;11758;45.756;11.432;2022-09-24T08:09:02;6.80;;;4.90;;
23179;SDS011;11758;45.756;11.432;2022-09-24T08:11:29;5.82;;;5.03;;
23179;SDS011;11758;45.756;11.432;2022-09-24T08:13:55;8.20;;;4.70;;
23179;SDS011;11758;45.756;11.432;2022-09-24T08:16:21;8.13;;;4.20;;
23179;SDS011;11758;45.756;11.432;2022-09-24T08:18:48;6.57;;;5.20;;
23179;SDS011;11758;45.756;11.432;2022-09-24T08:21:14;13.38;;;5.13;;
23179;SDS011;11758;45.756;11.432;2022-09-24T08:23:41;7.20;;;5.18;;
23179;SDS011;11758;45.756;11.432;2022-09-24T08:26:08;10.45;;;5.18;;
23179;SDS011;11758;45.756;11.432;2022-09-24T08:28:40;7.57;;;5.10;;
23179;SDS011;11758;45.756;11.432;2022-09-24T08:31:21;14.88;;;6.22;;
23179;SDS011;11758;45.756;11.432;2022-09-24T08:34:10;14.60;;;5.80;;
23179;SDS011;11758;45.756;11.432;2022-09-24T08:36:36;7.32;;;5.60;;
23179;SDS011;11758;45.756;11.432;2022-09-24T08:39:03;9.65;;;6.00;;
23179;SDS011;11758;45.756;11.432;2022-09-24T08:44:12;13.52;;;5.80;;
23179;SDS011;11758;45.756;11.432;2022-09-24T08:46:49;11.57;;;5.75;;
23179;SDS011;11758;45.756;11.432;2022-09-24T08:49:43;7.07;;;5.43;;
23179;SDS011;11758;45.756;11.432;2022-09-24T08:52:18;9.02;;;5.50;;
23179;SDS011;11758;45.756;11.432;2022-09-24T08:54:48;12.25;;;6.30;;
23179;SDS011;11758;45.756;11.432;2022-09-24T08:57:14;11.35;;;6.00;;
23179;SDS011;11758;45.756;11.432;2022-09-24T08:59:43;7.53;;;5.55;;
23179;SDS011;11758;45.756;11.432;2022-09-24T09:05:03;11.35;;;5.85;;
23179;SDS011;11758;45.756;11.432;2022-09-24T09:07:31;6.38;;;5.40;;
23179;SDS011;11758;45.756;11.432;2022-09-24T09:10:20;12.43;;;5.30;;
23179;SDS011;11758;45.756;11.432;2022-09-24T09:12:57;7.22;;;5.60;;
23179;SDS011;11758;45.756;11.432;2022-09-24T09:15:31;7.45;;;5.32;;
23179;SDS011;11758;45.756;11.432;2022-09-24T09:18:03;11.15;;;5.97;;
23179;SDS011;11758;45.756;11.432;2022-09-24T09:20:40;11.07;;;6.07;;
23179;SDS011;11758;45.756;11.432;2022-09-24T09:23:42;9.43;;;5.95;;
23179;SDS011;11758;45.756;11.432;2022-09-24T09:25:59;10.48;;;5.85;;
23179;SDS011;11758;45.756;11.432;2022-09-24T09:28:26;12.52;;;6.40;;
23179;SDS011;11758;45.756;11.432;2022-09-24T09:33:34;13.20;;;10.77;;
23179;SDS011;11758;45.756;11.432;2022-09-24T09:39:36;12.30;;;6.60;;
23179;SDS011;11758;45.756;11.432;2022-09-24T09:41:45;9.20;;;7.10;;
23179;SDS011;11758;45.756;11.432;2022-09-24T09:44:13;9.02;;;6.55;;
23179;SDS011;11758;45.756;11.432;2022-09-24T09:46:45;15.50;;;8.10;;
23179;SDS011;11758;45.756;11.432;2022-09-24T09:49:16;18.08;;;9.05;;
23179;SDS011;11758;45.756;11.432;2022-09-24T09:51:43;8.35;;;6.50;;
23179;SDS011;11758;45.756;11.432;2022-09-24T09:54:12;11.13;;;6.30;;
23179;SDS011;11758;45.756;11.432;2022-09-24T09:56:46;9.50;;;6.50;;
23179;SDS011;11758;45.756;11.432;2022-09-24T10:01:42;13.40;;;6.60;;
23179;SDS011;11758;45.756;11.432;2022-09-24T10:06:48;13.93;;;8.20;;
23179;SDS011;11758;45.756;11.432;2022-09-24T10:09:17;10.10;;;7.15;;
23179;SDS011;11758;45.756;11.432;2022-09-24T10:14:42;16.77;;;6.18;;
23179;SDS011;11758;45.756;11.432;2022-09-24T10:17:12;15.60;;;9.38;;
23179;SDS011;11758;45.756;11.432;2022-09-24T10:19:39;28.17;;;14.00;;
23179;SDS011;11758;45.756;11.432;2022-09-24T10:22:19;28.52;;;16.58;;
23179;SDS011;11758;45.756;11.432;2022-09-24T10:24:47;49.25;;;27.00;;
23179;SDS011;11758;45.756;11.432;2022-09-24T10:27:19;13.57;;;10.32;;
23179;SDS011;11758;45.756;11.432;2022-09-24T10:29:51;17.40;;;12.18;;
23179;SDS011;11758;45.756;11.432;2022-09-24T10:32:37;22.73;;;13.00;;
23179;SDS011;11758;45.756;11.432;2022-09-24T10:35:18;12.63;;;8.73;;
23179;SDS011;11758;45.756;11.432;2022-09-24T10:37:49;17.30;;;8.65;;
23179;SDS011;11758;45.756;11.432;2022-09-24T10:40:18;12.32;;;8.20;;
23179;SDS011;11758;45.756;11.432;2022-09-24T10:42:53;12.88;;;8.82;;
23179;SDS011;11758;45.756;11.432;2022-09-24T10:45:20;16.02;;;9.88;;
23179;SDS011;11758;45.756;11.432;2022-09-24T10:52:46;15.02;;;7.90;;
23179;SDS011;11758;45.756;11.432;2022-09-24T11:00:17;8.85;;;7.65;;
23179;SDS011;11758;45.756;11.432;2022-09-24T11:03:01;12.13;;;7.40;;
23179;SDS011;11758;45.756;11.432;2022-09-24T11:05:36;15.95;;;8.65;;
23179;SDS011;11758;45.756;11.432;2022-09-24T11:08:14;14.43;;;8.40;;
23179;SDS011;11758;45.756;11.432;2022-09-24T11:24:14;11.38;;;8.82;;
23179;SDS011;11758;45.756;11.432;2022-09-24T11:29:25;16.77;;;10.30;;
23179;SDS011;11758;45.756;11.432;2022-09-24T11:34:28;19.60;;;10.10;;
23179;SDS011;11758;45.756;11.432;2022-09-24T11:37:06;17.70;;;10.57;;
23179;SDS011;11758;45.756;11.432;2022-09-24T11:42:25;17.05;;;9.15;;
23179;SDS011;11758;45.756;11.432;2022-09-24T11:50:42;13.60;;;8.38;;
23179;SDS011;11758;45.756;11.432;2022-09-24T11:56:12;8.50;;;6.82;;
23179;SDS011;11758;45.756;11.432;2022-09-24T11:58:46;13.48;;;8.00;;
23179;SDS011;11758;45.756;11.432;2022-09-24T12:01:16;8.90;;;7.95;;
23179;SDS011;11758;45.756;11.432;2022-09-24T12:03:47;11.65;;;8.52;;
23179;SDS011;11758;45.756;11.432;2022-09-24T12:06:17;8.35;;;7.53;;
23179;SDS011;11758;45.756;11.432;2022-09-24T12:14:02;9.95;;;5.97;;
23179;SDS011;11758;45.756;11.432;2022-09-24T12:16:32;7.40;;;5.65;;
23179;SDS011;11758;45.756;11.432;2022-09-24T12:19:20;5.88;;;5.28;;
23179;SDS011;11758;45.756;11.432;2022-09-24T12:21:52;12.30;;;5.75;;
23179;SDS011;11758;45.756;11.432;2022-09-24T12:26:51;7.88;;;4.80;;
23179;SDS011;11758;45.756;11.432;2022-09-24T12:29:39;8.20;;;6.53;;
23179;SDS011;11758;45.756;11.432;2022-09-24T12:32:48;5.53;;;4.47;;
23179;SDS011;11758;45.756;11.432;2022-09-24T12:37:49;7.10;;;4.10;;
23179;SDS011;11758;45.756;11.432;2022-09-24T12:40:39;7.35;;;5.05;;
23179;SDS011;11758;45.756;11.432;2022-09-24T12:43:29;5.72;;;5.10;;
23179;SDS011;11758;45.756;11.432;2022-09-24T12:45:59;4.57;;;3.97;;
23179;SDS011;11758;45.756;11.432;2022-09-24T12:48:26;9.65;;;4.80;;
23179;SDS011;11758;45.756;11.432;2022-09-24T12:50:58;11.60;;;4.80;;
23179;SDS011;11758;45.756;11.432;2022-09-24T12:53:28;2.88;;;2.70;;
23179;SDS011;11758;45.756;11.432;2022-09-24T12:55:59;7.00;;;3.78;;
23179;SDS011;11758;45.756;11.432;2022-09-24T12:58:35;6.50;;;4.28;;
23179;SDS011;11758;45.756;11.432;2022-09-24T13:01:11;5.88;;;4.25;;
23179;SDS011;11758;45.756;11.432;2022-09-24T13:03:38;2.97;;;2.40;;
23179;SDS011;11758;45.756;11.432;2022-09-24T13:11:59;8.55;;;5.60;;
23179;SDS011;11758;45.756;11.432;2022-09-24T13:14:26;8.30;;;4.47;;
23179;SDS011;11758;45.756;11.432;2022-09-24T13:16:54;5.50;;;4.65;;
23179;SDS011;11758;45.756;11.432;2022-09-24T13:21:59;8.90;;;6.85;;
23179;SDS011;11758;45.756;11.432;2022-09-24T13:24:32;10.90;;;7.22;;
23179;SDS011;11758;45.756;11.432;2022-09-24T13:27:08;7.03;;;4.82;;
23179;SDS011;11758;45.756;11.432;2022-09-24T13:29:38;6.22;;;4.35;;
23179;SDS011;11758;45.756;11.432;2022-09-24T13:32:04;6.60;;;4.05;;
23179;SDS011;11758;45.756;11.432;2022-09-24T13:34:37;4.30;;;3.90;;
23179;SDS011;11758;45.756;11.432;2022-09-24T13:49:50;3.72;;;3.35;;
23179;SDS011;11758;45.756;11.432;2022-09-24T13:54:54;7.18;;;4.00;;
23179;SDS011;11758;45.756;11.432;2022-09-24T13:57:24;6.38;;;4.38;;
23179;SDS011;11758;45.756;11.432;2022-09-24T14:00:03;4.28;;;3.75;;
23179;SDS011;11758;45.756;11.432;2022-09-24T14:02:30;10.70;;;4.03;;
23179;SDS011;11758;45.756;11.432;2022-09-24T14:05:00;10.55;;;4.10;;
23179;SDS011;11758;45.756;11.432;2022-09-24T14:07:27;5.40;;;4.90;;
23179;SDS011;11758;45.756;11.432;2022-09-24T14:10:10;5.20;;;4.75;;
23179;SDS011;11758;45.756;11.432;2022-09-24T14:12:37;7.35;;;5.00;;
23179;SDS011;11758;45.756;11.432;2022-09-24T14:15:08;7.25;;;5.38;;
23179;SDS011;11758;45.756;11.432;2022-09-24T14:17:35;8.82;;;4.28;;
23179;SDS011;11758;45.756;11.432;2022-09-24T14:20:01;4.03;;;3.63;;
23179;SDS011;11758;45.756;11.432;2022-09-24T14:22:33;6.88;;;3.72;;
23179;SDS011;11758;45.756;11.432;2022-09-24T14:25:02;5.55;;;4.53;;
23179;SDS011;11758;45.756;11.432;2022-09-24T14:27:29;5.00;;;4.47;;
23179;SDS011;11758;45.756;11.432;2022-09-24T14:34:59;9.65;;;5.13;;
23179;SDS011;11758;45.756;11.432;2022-09-24T14:37:33;6.60;;;4.93;;
23179;SDS011;11758;45.756;11.432;2022-09-24T14:40:02;5.78;;;4.70;;
23179;SDS011;11758;45.756;11.432;2022-09-24T14:42:48;6.95;;;4.70;;
23179;SDS011;11758;45.756;11.432;2022-09-24T14:45:47;8.25;;;5.95;;
23179;SDS011;11758;45.756;11.432;2022-09-24T14:50:51;6.03;;;5.40;;
23179;SDS011;11758;45.756;11.432;2022-09-24T14:55:43;7.50;;;5.93;;
23179;SDS011;11758;45.756;11.432;2022-09-24T15:01:01;16.52;;;10.82;;
23179;SDS011;11758;45.756;11.432;2022-09-24T15:03:36;9.40;;;7.80;;
23179;SDS011;11758;45.756;11.432;2022-09-24T15:06:04;16.00;;;8.45;;
23179;SDS011;11758;45.756;11.432;2022-09-24T15:08:31;13.35;;;8.10;;
23179;SDS011;11758;45.756;11.432;2022-09-24T15:10:59;8.60;;;7.70;;
23179;SDS011;11758;45.756;11.432;2022-09-24T15:13:34;10.23;;;7.90;;
23179;SDS011;11758;45.756;11.432;2022-09-24T15:16:02;18.50;;;8.63;;
23179;SDS011;11758;45.756;11.432;2022-09-24T15:18:29;13.52;;;8.93;;
23179;SDS011;11758;45.756;11.432;2022-09-24T15:20:55;11.57;;;9.23;;
23179;SDS011;11758;45.756;11.432;2022-09-24T15:23:22;13.90;;;9.93;;
23179;SDS011;11758;45.756;11.432;2022-09-24T15:25:49;11.40;;;8.52;;
23179;SDS011;11758;45.756;11.432;2022-09-24T15:28:15;10.00;;;8.48;;
23179;SDS011;11758;45.756;11.432;2022-09-24T15:30:41;12.13;;;8.93;;
23179;SDS011;11758;45.756;11.432;2022-09-24T15:33:11;14.07;;;8.52;;
23179;SDS011;11758;45.756;11.432;2022-09-24T15:35:37;14.93;;;10.05;;
23179;SDS011;11758;45.756;11.432;2022-09-24T15:38:16;11.43;;;9.13;;
23179;SDS011;11758;45.756;11.432;2022-09-24T15:40:43;12.10;;;8.85;;
23179;SDS011;11758;45.756;11.432;2022-09-24T15:43:27;10.38;;;8.10;;
23179;SDS011;11758;45.756;11.432;2022-09-24T15:45:53;11.25;;;8.95;;
23179;SDS011;11758;45.756;11.432;2022-09-24T15:48:20;13.45;;;9.60;;
23179;SDS011;11758;45.756;11.432;2022-09-24T15:50:46;14.18;;;9.70;;
23179;SDS011;11758;45.756;11.432;2022-09-24T15:53:23;13.02;;;10.02;;
23179;SDS011;11758;45.756;11.432;2022-09-24T15:55:54;11.40;;;9.93;;
23179;SDS011;11758;45.756;11.432;2022-09-24T15:58:21;17.60;;;10.38;;
23179;SDS011;11758;45.756;11.432;2022-09-24T16:00:48;14.00;;;10.30;;
23179;SDS011;11758;45.756;11.432;2022-09-24T16:03:19;19.45;;;10.18;;
23179;SDS011;11758;45.756;11.432;2022-09-24T16:05:46;13.88;;;9.93;;
23179;SDS011;11758;45.756;11.432;2022-09-24T16:08:13;13.05;;;9.75;;
23179;SDS011;11758;45.756;11.432;2022-09-24T16:10:39;15.38;;;9.95;;
23179;SDS011;11758;45.756;11.432;2022-09-24T16:13:05;19.70;;;10.75;;
23179;SDS011;11758;45.756;11.432;2022-09-24T16:15:32;16.42;;;10.95;;
23179;SDS011;11758;45.756;11.432;2022-09-24T16:17:58;16.40;;;10.82;;
23179;SDS011;11758;45.756;11.432;2022-09-24T16:20:25;14.32;;;10.52;;
23179;SDS011;11758;45.756;11.432;2022-09-24T16:22:51;12.77;;;10.02;;
23179;SDS011;11758;45.756;11.432;2022-09-24T16:25:19;20.38;;;11.05;;
23179;SDS011;11758;45.756;11.432;2022-09-24T16:27:47;17.50;;;10.43;;
23179;SDS011;11758;45.756;11.432;2022-09-24T16:30:14;17.25;;;10.60;;
23179;SDS011;11758;45.756;11.432;2022-09-24T16:32:40;20.17;;;11.52;;
23179;SDS011;11758;45.756;11.432;2022-09-24T16:35:06;13.30;;;11.32;;
23179;SDS011;11758;45.756;11.432;2022-09-24T16:37:35;16.33;;;11.50;;
23179;SDS011;11758;45.756;11.432;2022-09-24T16:40:01;17.08;;;12.38;;
23179;SDS011;11758;45.756;11.432;2022-09-24T16:42:28;15.63;;;11.75;;
23179;SDS011;11758;45.756;11.432;2022-09-24T16:44:57;21.77;;;12.18;;
23179;SDS011;11758;45.756;11.432;2022-09-24T16:47:30;22.02;;;12.40;;